sensor_id;sensor_type;location;lat;lon;timestamp;pressure;altitude;pressure_sealevel;temperature;humidity
45357;BME280;31092;51.924;21.448;2022-11-27T00:01:27;101636.41;;;-0.59;100.00
45357;BME280;31092;51.924;21.448;2022-11-27T00:03:54;101620.13;;;-0.72;100.00
45357;BME280;31092;51.924;21.448;2022-11-27T00:06:23;101640.88;;;-0.61;100.00
45357;BME280;31092;51.924;21.448;2022-11-27T00:08:49;101590.03;;;-0.91;100.00
45357;BME280;31092;51.924;21.448;2022-11-27T00:11:22;101644.38;;;-0.61;100.00
45357;BME280;31092;51.924;21.448;2022-11-27T00:13:48;101628.06;;;-0.72;100.00
45357;BME280;31092;51.924;21.448;2022-11-27T00:16:15;101632.69;;;-0.77;100.00
45357;BME280;31092;51.924;21.448;2022-11-27T00:18:41;101580.09;;;-1.08;100.00
45357;BME280;31092;51.924;21.448;2022-11-27T00:23:43;101640.81;;;-0.82;100.00
45357;BME280;31092;51.924;21.448;2022-11-27T00:26:09;101572.69;;;-1.22;100.00
45357;BME280;31092;51.924;21.448;2022-11-27T00:28:36;101568.25;;;-1.22;100.00
45357;BME280;31092;51.924;21.448;2022-11-27T00:31:05;101604.41;;;-0.99;100.00
45357;BME280;31092;51.924;21.448;2022-11-27T00:33:31;101520.94;;;-1.51;100.00
45357;BME280;31092;51.924;21.448;2022-11-27T00:36:01;101501.22;;;-1.66;100.00
45357;BME280;31092;51.924;21.448;2022-11-27T00:38:26;101551.91;;;-1.31;100.00
45357;BME280;31092;51.924;21.448;2022-11-27T00:40:58;101539.03;;;-1.40;100.00
45357;BME280;31092;51.924;21.448;2022-11-27T00:43:29;101547.59;;;-1.34;100.00
45357;BME280;31092;51.924;21.448;2022-11-27T00:45:54;101561.38;;;-1.26;100.00
45357;BME280;31092;51.924;21.448;2022-11-27T00:48:20;101538.16;;;-1.41;100.00
45357;BME280;31092;51.924;21.448;2022-11-27T00:50:45;101516.38;;;-1.48;100.00
45357;BME280;31092;51.924;21.448;2022-11-27T00:53:10;101538.06;;;-1.38;100.00
45357;BME280;31092;51.924;21.448;2022-11-27T00:55:36;101592.97;;;-0.99;100.00
45357;BME280;31092;51.924;21.448;2022-11-27T00:58:01;101636.00;;;-0.72;100.00
45357;BME280;31092;51.924;21.448;2022-11-27T01:00:27;101572.28;;;-1.11;100.00
45357;BME280;31092;51.924;21.448;2022-11-27T01:02:52;101562.00;;;-1.19;100.00
45357;BME280;31092;51.924;21.448;2022-11-27T01:05:18;101572.28;;;-1.11;100.00
45357;BME280;31092;51.924;21.448;2022-11-27T01:07:43;101566.25;;;-1.15;100.00
45357;BME280;31092;51.924;21.448;2022-11-27T01:10:09;101632.63;;;-0.76;100.00
45357;BME280;31092;51.924;21.448;2022-11-27T01:12:35;101650.56;;;-0.60;100.00
45357;BME280;31092;51.924;21.448;2022-11-27T01:15:00;101555.63;;;-1.13;100.00
45357;BME280;31092;51.924;21.448;2022-11-27T01:17:26;101580.81;;;-1.03;100.00
45357;BME280;31092;51.924;21.448;2022-11-27T01:19:51;101614.34;;;-0.82;100.00
45357;BME280;31092;51.924;21.448;2022-11-27T01:22:17;101576.09;;;-0.97;100.00
45357;BME280;31092;51.924;21.448;2022-11-27T01:24:42;101662.44;;;-0.49;100.00
45357;BME280;31092;51.924;21.448;2022-11-27T01:27:08;101636.44;;;-0.61;100.00
45357;BME280;31092;51.924;21.448;2022-11-27T01:29:33;101585.69;;;-0.92;100.00
45357;BME280;31092;51.924;21.448;2022-11-27T01:31:59;101597.00;;;-0.89;100.00
45357;BME280;31092;51.924;21.448;2022-11-27T01:34:24;101544.91;;;-1.10;100.00
45357;BME280;31092;51.924;21.448;2022-11-27T01:36:50;101642.22;;;-0.50;100.00
45357;BME280;31092;51.924;21.448;2022-11-27T01:39:18;101651.63;;;-0.42;100.00
45357;BME280;31092;51.924;21.448;2022-11-27T01:41:44;101515.38;;;-1.22;100.00
45357;BME280;31092;51.924;21.448;2022-11-27T01:49:39;101547.22;;;-1.01;100.00
45357;BME280;31092;51.924;21.448;2022-11-27T01:52:19;101661.06;;;-0.35;100.00
45357;BME280;31092;51.924;21.448;2022-11-27T01:54:50;101634.28;;;-0.50;100.00
45357;BME280;31092;51.924;21.448;2022-11-27T01:57:26;101669.91;;;-0.36;100.00
45357;BME280;31092;51.924;21.448;2022-11-27T02:00:07;101556.69;;;-0.95;100.00
45357;BME280;31092;51.924;21.448;2022-11-27T02:02:33;101648.25;;;-0.46;100.00
45357;BME280;31092;51.924;21.448;2022-11-27T02:04:58;101663.81;;;-0.38;100.00
45357;BME280;31092;51.924;21.448;2022-11-27T02:07:24;101573.94;;;-0.85;100.00
45357;BME280;31092;51.924;21.448;2022-11-27T02:09:50;101597.44;;;-0.78;100.00
45357;BME280;31092;51.924;21.448;2022-11-27T02:17:26;101675.06;;;-0.33;100.00
45357;BME280;31092;51.924;21.448;2022-11-27T02:20:05;101672.31;;;-0.30;100.00
45357;BME280;31092;51.924;21.448;2022-11-27T02:31:46;101688.38;;;-0.35;100.00
45357;BME280;31092;51.924;21.448;2022-11-27T02:34:30;101681.22;;;-0.33;100.00
45357;BME280;31092;51.924;21.448;2022-11-27T02:37:08;101622.47;;;-0.64;100.00
45357;BME280;31092;51.924;21.448;2022-11-27T02:42:27;101685.66;;;-0.33;100.00
45357;BME280;31092;51.924;21.448;2022-11-27T02:45:02;101687.66;;;-0.38;100.00
45357;BME280;31092;51.924;21.448;2022-11-27T02:47:29;101565.09;;;-1.08;100.00
45357;BME280;31092;51.924;21.448;2022-11-27T02:49:56;101655.69;;;-0.56;100.00
45357;BME280;31092;51.924;21.448;2022-11-27T02:52:24;101601.47;;;-0.91;100.00
45357;BME280;31092;51.924;21.448;2022-11-27T02:54:54;101602.22;;;-0.87;100.00
45357;BME280;31092;51.924;21.448;2022-11-27T02:57:23;101602.53;;;-0.95;100.00
45357;BME280;31092;51.924;21.448;2022-11-27T02:59:50;101595.38;;;-0.93;100.00
45357;BME280;31092;51.924;21.448;2022-11-27T03:02:23;101597.28;;;-0.97;100.00
45357;BME280;31092;51.924;21.448;2022-11-27T03:04:53;101680.16;;;-0.51;100.00
45357;BME280;31092;51.924;21.448;2022-11-27T03:07:32;101586.94;;;-1.03;100.00
45357;BME280;31092;51.924;21.448;2022-11-27T03:10:06;101680.03;;;-0.47;100.00
45357;BME280;31092;51.924;21.448;2022-11-27T03:12:34;101623.81;;;-0.76;100.00
45357;BME280;31092;51.924;21.448;2022-11-27T03:14:59;101654.00;;;-0.58;100.00
45357;BME280;31092;51.924;21.448;2022-11-27T03:17:38;101588.31;;;-0.92;100.00
45357;BME280;31092;51.924;21.448;2022-11-27T03:20:12;101613.34;;;-0.79;100.00
45357;BME280;31092;51.924;21.448;2022-11-27T03:22:39;101689.66;;;-0.45;100.00
45357;BME280;31092;51.924;21.448;2022-11-27T03:25:05;101699.09;;;-0.38;100.00
45357;BME280;31092;51.924;21.448;2022-11-27T03:27:36;101583.16;;;-0.95;100.00
45357;BME280;31092;51.924;21.448;2022-11-27T03:30:05;101673.91;;;-0.48;100.00
45357;BME280;31092;51.924;21.448;2022-11-27T03:32:31;101678.69;;;-0.36;100.00
45357;BME280;31092;51.924;21.448;2022-11-27T03:34:57;101595.16;;;-0.87;100.00
45357;BME280;31092;51.924;21.448;2022-11-27T03:37:23;101578.00;;;-1.00;100.00
45357;BME280;31092;51.924;21.448;2022-11-27T03:39:49;101417.25;;;-2.05;100.00
45357;BME280;31092;51.924;21.448;2022-11-27T03:44:59;101697.00;;;-0.30;100.00
45357;BME280;31092;51.924;21.448;2022-11-27T03:50:43;101697.00;;;-0.30;100.00
45357;BME280;31092;51.924;21.448;2022-11-27T04:01:07;101601.81;;;-0.77;100.00
45357;BME280;31092;51.924;21.448;2022-11-27T04:03:35;101686.28;;;-0.27;100.00
45357;BME280;31092;51.924;21.448;2022-11-27T04:06:01;101587.09;;;-0.84;100.00
45357;BME280;31092;51.924;21.448;2022-11-27T04:08:27;101669.00;;;-0.35;100.00
45357;BME280;31092;51.924;21.448;2022-11-27T04:10:53;101640.47;;;-0.51;100.00
45357;BME280;31092;51.924;21.448;2022-11-27T04:13:18;101640.72;;;-0.57;100.00
45357;BME280;31092;51.924;21.448;2022-11-27T04:15:44;101611.22;;;-0.69;100.00
45357;BME280;31092;51.924;21.448;2022-11-27T04:18:09;101651.56;;;-0.41;100.00
45357;BME280;31092;51.924;21.448;2022-11-27T04:20:35;101595.66;;;-0.77;100.00
45357;BME280;31092;51.924;21.448;2022-11-27T04:23:01;101659.31;;;-0.36;100.00
45357;BME280;31092;51.924;21.448;2022-11-27T04:25:26;101627.09;;;-0.69;100.00
45357;BME280;31092;51.924;21.448;2022-11-27T04:27:52;101673.81;;;-0.46;100.00
45357;BME280;31092;51.924;21.448;2022-11-27T04:30:17;101595.22;;;-0.88;100.00
45357;BME280;31092;51.924;21.448;2022-11-27T04:32:43;101690.97;;;-0.33;100.00
45357;BME280;31092;51.924;21.448;2022-11-27T04:35:09;101655.78;;;-0.59;100.00
45357;BME280;31092;51.924;21.448;2022-11-27T04:37:35;101685.00;;;-0.38;100.00
45357;BME280;31092;51.924;21.448;2022-11-27T04:40:00;101689.16;;;-0.33;100.00
45357;BME280;31092;51.924;21.448;2022-11-27T04:42:26;101612.63;;;-0.83;100.00
45357;BME280;31092;51.924;21.448;2022-11-27T04:44:51;101540.22;;;-1.26;100.00
45357;BME280;31092;51.924;21.448;2022-11-27T04:47:17;101613.53;;;-0.84;100.00
45357;BME280;31092;51.924;21.448;2022-11-27T04:49:42;101713.50;;;-0.23;100.00
45357;BME280;31092;51.924;21.448;2022-11-27T04:52:08;101545.09;;;-1.15;100.00
45357;BME280;31092;51.924;21.448;2022-11-27T04:54:35;101582.09;;;-0.91;100.00
45357;BME280;31092;51.924;21.448;2022-11-27T04:57:01;101689.13;;;-0.31;100.00
45357;BME280;31092;51.924;21.448;2022-11-27T04:59:26;101615.47;;;-0.65;100.00
45357;BME280;31092;51.924;21.448;2022-11-27T05:01:52;101681.91;;;-0.28;100.00
45357;BME280;31092;51.924;21.448;2022-11-27T05:04:17;101615.53;;;-0.67;100.00
45357;BME280;31092;51.924;21.448;2022-11-27T05:06:43;101694.13;;;-0.23;100.00
45357;BME280;31092;51.924;21.448;2022-11-27T05:09:08;101601.81;;;-0.77;100.00
45357;BME280;31092;51.924;21.448;2022-11-27T05:11:34;101653.69;;;-0.51;100.00
45357;BME280;31092;51.924;21.448;2022-11-27T05:13:59;101678.84;;;-0.39;100.00
45357;BME280;31092;51.924;21.448;2022-11-27T05:16:42;101674.34;;;-0.37;100.00
45357;BME280;31092;51.924;21.448;2022-11-27T05:19:09;101593.34;;;-0.86;100.00
45357;BME280;31092;51.924;21.448;2022-11-27T05:21:35;101700.19;;;-0.21;100.00
45357;BME280;31092;51.924;21.448;2022-11-27T05:24:01;101600.75;;;-0.73;100.00
45357;BME280;31092;51.924;21.448;2022-11-27T05:26:27;101581.81;;;-0.84;100.00
45357;BME280;31092;51.924;21.448;2022-11-27T05:28:52;101699.16;;;-0.17;100.00
45357;BME280;31092;51.924;21.448;2022-11-27T05:31:18;101670.91;;;-0.39;100.00
45357;BME280;31092;51.924;21.448;2022-11-27T05:33:43;101581.06;;;-0.87;100.00
45357;BME280;31092;51.924;21.448;2022-11-27T05:36:09;101687.84;;;-0.21;100.00
45357;BME280;31092;51.924;21.448;2022-11-27T05:38:34;101568.03;;;-0.92;100.00
45357;BME280;31092;51.924;21.448;2022-11-27T05:41:00;101591.34;;;-0.80;100.00
45357;BME280;31092;51.924;21.448;2022-11-27T05:43:25;101682.81;;;-0.29;100.00
45357;BME280;31092;51.924;21.448;2022-11-27T05:45:51;101635.34;;;-0.55;100.00
45357;BME280;31092;51.924;21.448;2022-11-27T05:48:16;101677.53;;;-0.29;100.00
45357;BME280;31092;51.924;21.448;2022-11-27T05:50:41;101595.78;;;-0.80;100.00
45357;BME280;31092;51.924;21.448;2022-11-27T05:53:07;101599.22;;;-0.78;100.00
45357;BME280;31092;51.924;21.448;2022-11-27T05:55:32;101701.06;;;-0.21;100.00
45357;BME280;31092;51.924;21.448;2022-11-27T05:57:58;101618.19;;;-0.67;100.00
45357;BME280;31092;51.924;21.448;2022-11-27T06:00:23;101578.41;;;-0.87;100.00
45357;BME280;31092;51.924;21.448;2022-11-27T06:02:51;101702.84;;;-0.21;100.00
45357;BME280;31092;51.924;21.448;2022-11-27T06:05:17;101603.34;;;-0.71;100.00
45357;BME280;31092;51.924;21.448;2022-11-27T06:07:42;101706.09;;;-0.15;100.00
45357;BME280;31092;51.924;21.448;2022-11-27T06:10:08;101616.31;;;-0.65;100.00
45357;BME280;31092;51.924;21.448;2022-11-27T06:12:34;101599.91;;;-0.73;100.00
45357;BME280;31092;51.924;21.448;2022-11-27T06:14:59;101590.47;;;-0.80;100.00
45357;BME280;31092;51.924;21.448;2022-11-27T06:17:25;101610.38;;;-0.70;100.00
45357;BME280;31092;51.924;21.448;2022-11-27T06:19:50;101615.47;;;-0.65;100.00
45357;BME280;31092;51.924;21.448;2022-11-27T06:22:16;101711.25;;;-0.10;100.00
45357;BME280;31092;51.924;21.448;2022-11-27T06:24:41;101699.16;;;-0.17;100.00
45357;BME280;31092;51.924;21.448;2022-11-27T06:27:07;101611.03;;;-0.65;100.00
45357;BME280;31092;51.924;21.448;2022-11-27T06:29:32;101668.06;;;-0.34;100.00
45357;BME280;31092;51.924;21.448;2022-11-27T06:31:58;101646.38;;;-0.44;100.00
45357;BME280;31092;51.924;21.448;2022-11-27T06:34:23;101611.03;;;-0.65;100.00
45357;BME280;31092;51.924;21.448;2022-11-27T06:36:49;101595.47;;;-0.73;100.00
45357;BME280;31092;51.924;21.448;2022-11-27T06:39:15;101654.75;;;-0.33;100.00
45357;BME280;31092;51.924;21.448;2022-11-27T06:41:41;101621.06;;;-0.51;100.00
45357;BME280;31092;51.924;21.448;2022-11-27T06:44:08;101698.66;;;-0.05;100.00
45357;BME280;31092;51.924;21.448;2022-11-27T06:46:34;101650.06;;;-0.26;100.00
45357;BME280;31092;51.924;21.448;2022-11-27T06:49:00;101598.44;;;-0.58;100.00
45357;BME280;31092;51.924;21.448;2022-11-27T06:51:28;101679.47;;;-0.10;100.00
45357;BME280;31092;51.924;21.448;2022-11-27T06:53:54;101683.59;;;-0.03;100.00
45357;BME280;31092;51.924;21.448;2022-11-27T06:56:22;101649.09;;;-0.23;100.00
45357;BME280;31092;51.924;21.448;2022-11-27T06:58:52;101650.63;;;-0.18;100.00
45357;BME280;31092;51.924;21.448;2022-11-27T07:01:19;101674.75;;;-0.04;100.00
45357;BME280;31092;51.924;21.448;2022-11-27T07:03:45;101613.56;;;-0.40;100.00
45357;BME280;31092;51.924;21.448;2022-11-27T07:06:13;101598.84;;;-0.47;100.00
45357;BME280;31092;51.924;21.448;2022-11-27T07:08:39;101699.69;;;0.13;100.00
45357;BME280;31092;51.924;21.448;2022-11-27T07:11:07;101603.91;;;-0.41;100.00
45357;BME280;31092;51.924;21.448;2022-11-27T07:13:34;101594.41;;;-0.46;100.00
45357;BME280;31092;51.924;21.448;2022-11-27T07:16:04;101662.44;;;-0.05;100.00
45357;BME280;31092;51.924;21.448;2022-11-27T07:18:32;101683.31;;;0.03;100.00
45357;BME280;31092;51.924;21.448;2022-11-27T07:20:58;101603.72;;;-0.36;100.00
45357;BME280;31092;51.924;21.448;2022-11-27T07:23:24;101624.13;;;-0.18;100.00
45357;BME280;31092;51.924;21.448;2022-11-27T07:25:49;101610.44;;;-0.28;100.00
45357;BME280;31092;51.924;21.448;2022-11-27T07:28:15;101562.97;;;-0.54;100.00
45357;BME280;31092;51.924;21.448;2022-11-27T07:30:40;101571.72;;;-0.52;100.00
45357;BME280;31092;51.924;21.448;2022-11-27T07:33:06;101674.00;;;0.15;100.00
45357;BME280;31092;51.924;21.448;2022-11-27T07:35:31;101564.41;;;-0.45;100.00
45357;BME280;31092;51.924;21.448;2022-11-27T07:37:57;101645.50;;;-0.01;100.00
45357;BME280;31092;51.924;21.448;2022-11-27T07:40:25;101668.59;;;0.18;100.00
45357;BME280;31092;51.924;21.448;2022-11-27T07:42:51;101650.53;;;0.06;100.00
45357;BME280;31092;51.924;21.448;2022-11-27T07:45:16;101590.16;;;-0.29;100.00
45357;BME280;31092;51.924;21.448;2022-11-27T07:47:42;101685.75;;;0.30;100.00
45357;BME280;31092;51.924;21.448;2022-11-27T07:50:07;101644.19;;;0.10;100.00
45357;BME280;31092;51.924;21.448;2022-11-27T07:52:35;101606.47;;;-0.17;100.00
45357;BME280;31092;51.924;21.448;2022-11-27T07:55:00;101678.06;;;0.23;100.00
45357;BME280;31092;51.924;21.448;2022-11-27T07:57:26;101584.00;;;-0.29;100.00
45357;BME280;31092;51.924;21.448;2022-11-27T07:59:52;101636.56;;;0.02;100.00
45357;BME280;31092;51.924;21.448;2022-11-27T08:02:18;101583.25;;;-0.33;100.00
45357;BME280;31092;51.924;21.448;2022-11-27T08:04:43;101551.16;;;-0.45;100.00
45357;BME280;31092;51.924;21.448;2022-11-27T08:07:10;101590.84;;;-0.23;100.00
45357;BME280;31092;51.924;21.448;2022-11-27T08:09:36;101670.09;;;0.23;100.00
45357;BME280;31092;51.924;21.448;2022-11-27T08:12:03;101635.59;;;0.05;100.00
45357;BME280;31092;51.924;21.448;2022-11-27T08:14:28;101614.97;;;-0.09;100.00
45357;BME280;31092;51.924;21.448;2022-11-27T08:16:54;101663.94;;;0.23;100.00
45357;BME280;31092;51.924;21.448;2022-11-27T08:19:20;101621.13;;;-0.09;100.00
45357;BME280;31092;51.924;21.448;2022-11-27T08:21:45;101694.38;;;0.35;100.00
45357;BME280;31092;51.924;21.448;2022-11-27T08:24:10;101672.63;;;0.27;100.00
45357;BME280;31092;51.924;21.448;2022-11-27T08:26:36;101709.03;;;0.43;100.00
45357;BME280;31092;51.924;21.448;2022-11-27T08:29:01;101642.38;;;0.10;100.00
45357;BME280;31092;51.924;21.448;2022-11-27T08:31:27;101593.97;;;-0.14;100.00
45357;BME280;31092;51.924;21.448;2022-11-27T08:33:53;101666.34;;;0.29;100.00
45357;BME280;31092;51.924;21.448;2022-11-27T08:36:18;101680.00;;;0.40;100.00
45357;BME280;31092;51.924;21.448;2022-11-27T08:38:44;101600.78;;;-0.08;100.00
45357;BME280;31092;51.924;21.448;2022-11-27T08:41:10;101592.06;;;-0.10;100.00
45357;BME280;31092;51.924;21.448;2022-11-27T08:43:36;101696.91;;;0.58;100.00
45357;BME280;31092;51.924;21.448;2022-11-27T08:46:03;101608.03;;;0.09;100.00
45357;BME280;31092;51.924;21.448;2022-11-27T08:48:28;101583.09;;;-0.08;100.00
45357;BME280;31092;51.924;21.448;2022-11-27T08:50:57;101580.44;;;-0.08;100.00
45357;BME280;31092;51.924;21.448;2022-11-27T08:53:22;101694.13;;;0.61;100.00
45357;BME280;31092;51.924;21.448;2022-11-27T08:55:48;101599.44;;;0.04;100.00
45357;BME280;31092;51.924;21.448;2022-11-27T08:58:14;101621.53;;;0.23;100.00
45357;BME280;31092;51.924;21.448;2022-11-27T09:00:40;101601.41;;;0.19;100.00
45357;BME280;31092;51.924;21.448;2022-11-27T09:03:05;101663.88;;;0.65;100.00
45357;BME280;31092;51.924;21.448;2022-11-27T09:05:31;101575.25;;;0.11;100.00
45357;BME280;31092;51.924;21.448;2022-11-27T09:07:57;101593.13;;;0.27;100.00
45357;BME280;31092;51.924;21.448;2022-11-27T09:10:24;101680.06;;;0.80;100.00
45357;BME280;31092;51.924;21.448;2022-11-27T09:12:50;101620.34;;;0.51;100.00
45357;BME280;31092;51.924;21.448;2022-11-27T09:15:15;101632.69;;;0.52;100.00
45357;BME280;31092;51.924;21.448;2022-11-27T09:17:42;101591.13;;;0.32;100.00
45357;BME280;31092;51.924;21.448;2022-11-27T09:20:08;101686.09;;;0.83;100.00
45357;BME280;31092;51.924;21.448;2022-11-27T09:22:34;101643.75;;;0.61;100.00
45357;BME280;31092;51.924;21.448;2022-11-27T09:25:00;101608.31;;;0.43;100.00
45357;BME280;31092;51.924;21.448;2022-11-27T09:27:25;101588.41;;;0.33;100.00
45357;BME280;31092;51.924;21.448;2022-11-27T09:29:51;101652.09;;;0.73;100.00
45357;BME280;31092;51.924;21.448;2022-11-27T09:32:17;101671.84;;;0.86;100.00
45357;BME280;31092;51.924;21.448;2022-11-27T09:34:42;101534.22;;;-0.01;100.00
45357;BME280;31092;51.924;21.448;2022-11-27T09:37:08;101667.66;;;0.80;100.00
45357;BME280;31092;51.924;21.448;2022-11-27T09:39:34;101627.84;;;0.61;100.00
45357;BME280;31092;51.924;21.448;2022-11-27T09:42:03;101656.69;;;0.88;100.00
45357;BME280;31092;51.924;21.448;2022-11-27T09:44:34;101668.63;;;0.98;100.00
45357;BME280;31092;51.924;21.448;2022-11-27T09:47:58;101683.47;;;1.02;100.00
45357;BME280;31092;51.924;21.448;2022-11-27T09:50:15;101622.09;;;0.70;100.00
45357;BME280;31092;51.924;21.448;2022-11-27T09:52:51;101654.19;;;0.85;100.00
45357;BME280;31092;51.924;21.448;2022-11-27T09:55:37;101690.56;;;1.02;100.00
45357;BME280;31092;51.924;21.448;2022-11-27T09:58:09;101686.66;;;1.10;100.00
45357;BME280;31092;51.924;21.448;2022-11-27T10:00:37;101585.81;;;0.52;100.00
45357;BME280;31092;51.924;21.448;2022-11-27T10:03:06;101654.53;;;0.96;100.00
45357;BME280;31092;51.924;21.448;2022-11-27T10:05:47;101681.97;;;1.15;100.00
45357;BME280;31092;51.924;21.448;2022-11-27T10:13:54;101642.72;;;1.03;100.00
45357;BME280;31092;51.924;21.448;2022-11-27T10:16:32;101666.66;;;1.22;100.00
45357;BME280;31092;51.924;21.448;2022-11-27T10:27:24;101581.47;;;0.89;100.00
45357;BME280;31092;51.924;21.448;2022-11-27T10:29:54;101630.97;;;1.28;100.00
45357;BME280;31092;51.924;21.448;2022-11-27T10:32:22;101609.69;;;1.10;100.00
45357;BME280;31092;51.924;21.448;2022-11-27T10:34:55;101628.69;;;1.20;100.00
45357;BME280;31092;51.924;21.448;2022-11-27T10:37:50;101651.78;;;1.37;100.00
45357;BME280;31092;51.924;21.448;2022-11-27T10:41:23;101651.66;;;1.40;100.00
45357;BME280;31092;51.924;21.448;2022-11-27T10:43:28;101644.81;;;1.34;100.00
45357;BME280;31092;51.924;21.448;2022-11-27T10:45:58;101563.94;;;0.86;100.00
45357;BME280;31092;51.924;21.448;2022-11-27T10:48:25;101559.84;;;0.79;100.00
45357;BME280;31092;51.924;21.448;2022-11-27T10:50:53;101551.94;;;0.78;100.00
45357;BME280;31092;51.924;21.448;2022-11-27T10:53:22;101652.41;;;1.42;100.00
45357;BME280;31092;51.924;21.448;2022-11-27T11:01:24;101614.03;;;1.30;100.00
45357;BME280;31092;51.924;21.448;2022-11-27T11:03:50;101634.06;;;1.37;100.00
45357;BME280;31092;51.924;21.448;2022-11-27T11:06:24;101553.19;;;0.89;100.00
45357;BME280;31092;51.924;21.448;2022-11-27T11:09:30;101635.50;;;1.44;100.00
45357;BME280;31092;51.924;21.448;2022-11-27T11:12:17;101544.84;;;0.97;100.00
45357;BME280;31092;51.924;21.448;2022-11-27T11:14:52;101623.94;;;1.46;100.00
45357;BME280;31092;51.924;21.448;2022-11-27T11:17:34;101537.91;;;0.94;100.00
45357;BME280;31092;51.924;21.448;2022-11-27T11:20:22;101538.75;;;0.95;100.00
45357;BME280;31092;51.924;21.448;2022-11-27T11:22:48;101550.88;;;1.01;100.00
45357;BME280;31092;51.924;21.448;2022-11-27T11:25:17;101608.31;;;1.39;100.00
45357;BME280;31092;51.924;21.448;2022-11-27T11:27:44;101634.25;;;1.52;100.00
45357;BME280;31092;51.924;21.448;2022-11-27T11:30:23;101630.75;;;1.51;100.00
45357;BME280;31092;51.924;21.448;2022-11-27T11:32:51;101610.75;;;1.44;100.00
45357;BME280;31092;51.924;21.448;2022-11-27T11:35:31;101620.94;;;1.53;100.00
45357;BME280;31092;51.924;21.448;2022-11-27T11:38:02;101619.66;;;1.43;100.00
45357;BME280;31092;51.924;21.448;2022-11-27T11:40:36;101569.28;;;1.23;100.00
45357;BME280;31092;51.924;21.448;2022-11-27T11:43:23;101625.00;;;1.60;100.00
45357;BME280;31092;51.924;21.448;2022-11-27T11:45:49;101535.44;;;1.09;100.00
45357;BME280;31092;51.924;21.448;2022-11-27T11:48:25;101550.63;;;1.24;100.00
45357;BME280;31092;51.924;21.448;2022-11-27T11:51:13;101625.50;;;1.68;100.00
45357;BME280;31092;51.924;21.448;2022-11-27T11:53:42;101525.56;;;1.12;100.00
45357;BME280;31092;51.924;21.448;2022-11-27T12:00:01;101623.41;;;1.75;100.00
45357;BME280;31092;51.924;21.448;2022-11-27T12:10:54;101636.81;;;1.72;100.00
45357;BME280;31092;51.924;21.448;2022-11-27T12:13:41;101630.66;;;1.72;100.00
45357;BME280;31092;51.924;21.448;2022-11-27T12:16:33;101621.13;;;1.67;100.00
45357;BME280;31092;51.924;21.448;2022-11-27T12:24:22;101626.97;;;1.74;100.00
45357;BME280;31092;51.924;21.448;2022-11-27T12:43:19;101604.94;;;1.72;100.00
45357;BME280;31092;51.924;21.448;2022-11-27T12:46:17;101600.63;;;1.70;100.00
45357;BME280;31092;51.924;21.448;2022-11-27T12:48:52;101502.47;;;1.14;100.00
45357;BME280;31092;51.924;21.448;2022-11-27T12:51:24;101577.25;;;1.59;100.00
45357;BME280;31092;51.924;21.448;2022-11-27T12:53:52;101601.59;;;1.68;100.00
45357;BME280;31092;51.924;21.448;2022-11-27T12:56:41;101599.78;;;1.69;100.00
45357;BME280;31092;51.924;21.448;2022-11-27T12:59:23;101600.88;;;1.65;100.00
45357;BME280;31092;51.924;21.448;2022-11-27T13:02:00;101574.03;;;1.52;100.00
45357;BME280;31092;51.924;21.448;2022-11-27T13:04:38;101594.72;;;1.64;100.00
45357;BME280;31092;51.924;21.448;2022-11-27T13:09:50;101520.56;;;1.24;100.00
45357;BME280;31092;51.924;21.448;2022-11-27T13:12:31;101501.53;;;1.15;100.00
45357;BME280;31092;51.924;21.448;2022-11-27T13:15:04;101523.03;;;1.28;100.00
45357;BME280;31092;51.924;21.448;2022-11-27T13:17:40;101584.28;;;1.60;100.00
45357;BME280;31092;51.924;21.448;2022-11-27T13:20:20;101543.50;;;1.43;100.00
45357;BME280;31092;51.924;21.448;2022-11-27T13:22:49;101485.97;;;1.08;100.00
45357;BME280;31092;51.924;21.448;2022-11-27T13:25:15;101602.44;;;1.69;100.00
45357;BME280;31092;51.924;21.448;2022-11-27T13:27:45;101491.03;;;1.12;100.00
45357;BME280;31092;51.924;21.448;2022-11-27T13:30:24;101598.97;;;1.67;100.00
45357;BME280;31092;51.924;21.448;2022-11-27T13:33:00;101508.34;;;1.21;100.00
45357;BME280;31092;51.924;21.448;2022-11-27T13:35:41;101570.09;;;1.61;100.00
45357;BME280;31092;51.924;21.448;2022-11-27T13:38:22;101576.81;;;1.68;100.00
45357;BME280;31092;51.924;21.448;2022-11-27T13:40:53;101499.56;;;1.19;100.00
45357;BME280;31092;51.924;21.448;2022-11-27T13:46:08;101572.81;;;1.59;100.00
45357;BME280;31092;51.924;21.448;2022-11-27T13:48:59;101580.88;;;1.58;100.00
45357;BME280;31092;51.924;21.448;2022-11-27T13:51:29;101414.06;;;0.59;100.00
45357;BME280;31092;51.924;21.448;2022-11-27T13:54:11;101590.91;;;1.51;100.00
45357;BME280;31092;51.924;21.448;2022-11-27T13:56:38;101571.19;;;1.38;100.00
45357;BME280;31092;51.924;21.448;2022-11-27T13:59:21;101528.16;;;1.14;100.00
45357;BME280;31092;51.924;21.448;2022-11-27T14:04:19;101530.84;;;1.12;100.00
45357;BME280;31092;51.924;21.448;2022-11-27T14:06:51;101555.66;;;1.30;100.00
45357;BME280;31092;51.924;21.448;2022-11-27T14:09:18;101573.72;;;1.41;100.00
45357;BME280;31092;51.924;21.448;2022-11-27T14:11:45;101553.28;;;1.24;100.00
45357;BME280;31092;51.924;21.448;2022-11-27T14:14:15;101573.22;;;1.33;100.00
45357;BME280;31092;51.924;21.448;2022-11-27T14:16:41;101505.97;;;0.96;100.00
45357;BME280;31092;51.924;21.448;2022-11-27T14:19:33;101578.78;;;1.28;100.00
45357;BME280;31092;51.924;21.448;2022-11-27T14:22:16;101495.34;;;0.79;100.00
45357;BME280;31092;51.924;21.448;2022-11-27T14:24:54;101479.00;;;0.69;100.00